< < Back
Terminal Aerodrome Forecast


Current Version              Previous Versions:   1  2  3  4  5  6  7  8  9  

Terminal Aerodrome Forecast

705
FTUS42 KFFC 080520
TAFPDK
TAF
KPDK 080520Z 0806/0906 27004KT P6SM BKN250
     FM080900 25003KT P6SM SCT035 BKN100
     FM081400 26007KT P6SM OVC025
     FM081800 27012G22KT P6SM SCT035 BKN050
      TEMPO 0818/0822 6SM -SHRA BKN035
     FM090000 30010G20KT P6SM OVC025 PROB30 0900/0906 6SM -SHSN
      BKN015=

Latest METAR

754
SAUS70 KWBC 080600 RRD
MTRPDK
METAR KPDK 080553Z AUTO 26007KT 10SM CLR 05/M04 A2996 RMK AO2 SLP150
T00501044 10094 20033 56006


USA.gov is the U.S. government's official web portal to all federal, state and local government web resources and services.